createdAt,value
2023-08-07T00:00:20.311Z,14.60
2023-08-07T00:02:47.315Z,14.50
2023-08-07T00:05:14.207Z,14.50
2023-08-07T00:07:41.244Z,14.40
2023-08-07T00:10:08.425Z,14.20
2023-08-07T00:12:35.066Z,14.30
2023-08-07T00:15:02.865Z,14.20
2023-08-07T00:17:29.946Z,14.20
2023-08-07T00:19:56.668Z,14.10
2023-08-07T00:22:23.514Z,14.10
2023-08-07T00:24:50.155Z,14.00
2023-08-07T00:27:16.787Z,14.00
2023-08-07T00:29:43.534Z,13.90
2023-08-07T00:32:10.266Z,13.90
2023-08-07T00:34:37.004Z,13.80
2023-08-07T00:37:03.713Z,13.80
2023-08-07T00:39:30.390Z,13.80
2023-08-07T00:41:57.022Z,13.80
2023-08-07T00:44:24.575Z,13.70
2023-08-07T00:46:51.546Z,13.70
2023-08-07T00:49:19.803Z,13.70
2023-08-07T00:51:46.716Z,13.80
2023-08-07T00:54:16.248Z,13.80
2023-08-07T00:56:42.880Z,13.80
2023-08-07T00:59:10.866Z,13.80
2023-08-07T01:01:37.875Z,13.80
2023-08-07T01:04:04.738Z,13.80
2023-08-07T01:06:31.475Z,13.80
2023-08-07T01:08:58.598Z,13.80
2023-08-07T01:11:46.908Z,13.80
2023-08-07T01:14:35.227Z,13.80
2023-08-07T01:17:15.486Z,13.80
2023-08-07T01:19:42.492Z,13.80
2023-08-07T01:22:19.202Z,13.80
2023-08-07T01:24:50.882Z,13.80
2023-08-07T01:27:20.531Z,13.80
2023-08-07T01:30:01.966Z,13.80
2023-08-07T01:32:49.869Z,13.80
2023-08-07T01:35:18.529Z,13.70
2023-08-07T01:37:47.761Z,13.70
2023-08-07T01:40:15.027Z,13.70
2023-08-07T01:42:41.874Z,13.70
2023-08-07T01:45:08.823Z,13.70
2023-08-07T01:47:35.876Z,13.70
2023-08-07T01:50:03.303Z,13.70
2023-08-07T01:52:30.075Z,13.70
2023-08-07T01:54:56.880Z,13.70
2023-08-07T01:57:23.639Z,13.60
2023-08-07T01:59:50.513Z,13.60
2023-08-07T02:02:17.172Z,13.60
2023-08-07T02:04:44.393Z,13.60
2023-08-07T02:07:11.114Z,13.60
2023-08-07T02:09:37.755Z,13.60
2023-08-07T02:12:05.005Z,13.50
2023-08-07T02:14:31.748Z,13.60
2023-08-07T02:16:58.382Z,13.60
2023-08-07T02:19:25.023Z,13.70
2023-08-07T02:21:51.661Z,13.80
2023-08-07T02:24:19.856Z,13.80
2023-08-07T02:26:46.486Z,13.80
2023-08-07T02:29:13.107Z,13.90
2023-08-07T02:31:39.816Z,13.90
2023-08-07T02:34:06.461Z,14.00
2023-08-07T02:36:33.128Z,14.00
2023-08-07T02:38:59.782Z,13.90
2023-08-07T02:41:26.400Z,14.00
2023-08-07T02:43:53.042Z,14.00
2023-08-07T02:46:19.803Z,14.10
2023-08-07T02:48:46.592Z,14.10
2023-08-07T02:51:13.272Z,14.20
2023-08-07T02:53:40.229Z,14.20
2023-08-07T02:56:06.869Z,14.30
2023-08-07T02:58:33.636Z,14.30
2023-08-07T03:01:07.337Z,14.30
2023-08-07T03:03:34.149Z,14.40
2023-08-07T03:06:00.928Z,14.30
2023-08-07T03:08:27.578Z,14.30
2023-08-07T03:10:56.747Z,14.30
2023-08-07T03:13:24.368Z,14.30
2023-08-07T03:15:51.500Z,14.30
2023-08-07T03:18:18.610Z,14.30
2023-08-07T03:20:45.720Z,14.30
2023-08-07T03:23:12.413Z,14.30
2023-08-07T03:25:39.107Z,14.30
2023-08-07T03:28:05.727Z,14.40
2023-08-07T03:30:32.333Z,14.30
2023-08-07T03:32:58.949Z,14.30
2023-08-07T03:35:25.659Z,14.30
2023-08-07T03:37:52.323Z,14.30
2023-08-07T03:40:18.945Z,14.30
2023-08-07T03:42:45.598Z,14.30
2023-08-07T03:45:12.199Z,14.20
2023-08-07T03:47:38.859Z,14.30
2023-08-07T03:50:06.125Z,14.30
2023-08-07T03:52:32.809Z,14.30
2023-08-07T03:54:59.401Z,14.30
2023-08-07T03:57:26.601Z,14.30
2023-08-07T03:59:53.210Z,14.30
2023-08-07T04:02:19.906Z,14.20
2023-08-07T04:04:46.537Z,14.20
2023-08-07T04:07:13.128Z,14.20
2023-08-07T04:09:39.716Z,14.20
2023-08-07T04:12:06.806Z,14.20
2023-08-07T04:14:33.388Z,14.10
2023-08-07T04:17:01.583Z,14.10
2023-08-07T04:19:29.045Z,14.10
2023-08-07T04:21:55.708Z,14.10
2023-08-07T04:24:22.308Z,14.10
2023-08-07T04:26:49.197Z,14.10
2023-08-07T04:29:16.042Z,14.10
2023-08-07T04:31:42.794Z,14.10
2023-08-07T04:34:09.564Z,14.10
2023-08-07T04:36:36.160Z,14.10
2023-08-07T04:39:02.820Z,14.10
2023-08-07T04:41:29.429Z,14.10
2023-08-07T04:43:56.061Z,14.10
2023-08-07T04:46:22.758Z,14.10
2023-08-07T04:48:49.559Z,14.20
2023-08-07T04:51:16.602Z,14.20
2023-08-07T04:53:43.264Z,14.30
2023-08-07T04:56:09.850Z,14.30
2023-08-07T04:58:36.514Z,14.30
2023-08-07T05:01:03.159Z,14.30
2023-08-07T05:03:31.558Z,14.30
2023-08-07T05:06:02.081Z,14.40
2023-08-07T05:08:29.163Z,14.40
2023-08-07T05:10:55.820Z,14.40
2023-08-07T05:13:22.460Z,14.40
2023-08-07T05:15:49.946Z,14.50
2023-08-07T05:18:17.351Z,14.50
2023-08-07T05:20:44.268Z,14.70
2023-08-07T05:23:11.801Z,14.70
2023-08-07T05:25:38.995Z,14.90
2023-08-07T05:28:06.313Z,14.90
2023-08-07T05:30:33.227Z,15.00
2023-08-07T05:32:59.944Z,15.10
2023-08-07T05:35:26.843Z,15.20
2023-08-07T05:37:53.429Z,15.40
2023-08-07T05:40:20.040Z,15.50
2023-08-07T05:42:46.671Z,15.60
2023-08-07T05:45:13.357Z,15.60
2023-08-07T05:47:40.294Z,15.70
2023-08-07T05:50:07.428Z,15.90
2023-08-07T05:52:34.008Z,16.00
2023-08-07T05:55:00.627Z,16.30
2023-08-07T05:57:27.277Z,16.40
2023-08-07T05:59:53.865Z,16.40
2023-08-07T06:02:20.637Z,16.50
2023-08-07T06:04:47.590Z,16.40
2023-08-07T06:07:14.193Z,16.50
2023-08-07T06:09:40.786Z,16.60
2023-08-07T06:12:08.459Z,16.80
2023-08-07T06:14:35.033Z,17.00
2023-08-07T06:17:02.745Z,17.30
2023-08-07T06:19:32.578Z,17.70
2023-08-07T06:22:00.452Z,17.70
2023-08-07T06:24:27.572Z,17.60
2023-08-07T06:26:54.212Z,17.20
2023-08-07T06:29:20.882Z,16.90
2023-08-07T06:31:47.690Z,16.60
2023-08-07T06:34:14.345Z,16.30
2023-08-07T06:36:41.264Z,16.20
2023-08-07T06:39:07.942Z,16.10
2023-08-07T06:41:34.568Z,16.20
2023-08-07T06:44:01.190Z,16.40
2023-08-07T06:46:28.885Z,16.50
2023-08-07T06:48:55.671Z,16.70
2023-08-07T06:51:22.360Z,16.90
2023-08-07T06:53:48.964Z,17.10
2023-08-07T06:56:15.584Z,17.30
2023-08-07T06:58:42.319Z,17.50
2023-08-07T07:01:09.002Z,17.80
2023-08-07T07:03:35.748Z,18.20
2023-08-07T07:06:02.428Z,18.60
2023-08-07T07:08:29.063Z,18.90
2023-08-07T07:10:55.683Z,19.00
2023-08-07T07:13:22.317Z,19.50
2023-08-07T07:15:54.201Z,21.30
2023-08-07T07:18:20.835Z,23.80
2023-08-07T07:20:47.410Z,25.80
2023-08-07T07:23:14.030Z,27.10
2023-08-07T07:25:40.739Z,28.00
2023-08-07T07:28:07.603Z,29.10
2023-08-07T07:30:34.213Z,29.90
2023-08-07T07:33:00.856Z,30.50
2023-08-07T07:35:28.421Z,30.80
2023-08-07T07:37:55.013Z,31.10
2023-08-07T07:40:21.605Z,31.20
2023-08-07T07:42:48.192Z,31.30
2023-08-07T07:45:14.862Z,30.50
2023-08-07T07:47:41.908Z,29.90
2023-08-07T07:50:09.921Z,29.10
2023-08-07T07:52:36.589Z,28.50
2023-08-07T07:55:03.370Z,28.40
2023-08-07T07:57:30.175Z,28.30
2023-08-07T07:59:56.855Z,29.30
2023-08-07T08:02:25.281Z,30.00
2023-08-07T08:04:52.654Z,30.90
2023-08-07T08:07:19.940Z,32.10
2023-08-07T08:09:46.599Z,31.40
2023-08-07T08:12:13.215Z,30.90
2023-08-07T08:14:50.940Z,29.50
2023-08-07T08:17:23.961Z,27.40
2023-08-07T08:19:51.656Z,25.20
2023-08-07T08:22:19.190Z,23.50
2023-08-07T08:24:45.834Z,22.40
2023-08-07T08:27:12.444Z,21.70
2023-08-07T08:29:39.038Z,22.70
2023-08-07T08:32:06.066Z,25.00
2023-08-07T08:34:32.691Z,27.70
2023-08-07T08:36:59.260Z,29.70
2023-08-07T08:39:26.139Z,29.70
2023-08-07T08:41:53.878Z,30.70
2023-08-07T08:44:23.278Z,30.60
2023-08-07T08:46:54.880Z,29.60
2023-08-07T08:49:29.357Z,28.00
2023-08-07T08:51:56.537Z,26.40
2023-08-07T08:54:23.278Z,24.80
2023-08-07T08:56:51.139Z,23.40
2023-08-07T08:59:19.842Z,23.20
2023-08-07T09:01:47.844Z,25.30
2023-08-07T09:04:15.517Z,27.80
2023-08-07T09:06:44.471Z,29.70
2023-08-07T09:09:14.326Z,30.30
2023-08-07T09:11:43.709Z,31.20
2023-08-07T09:14:13.940Z,32.00
2023-08-07T09:16:40.889Z,33.30
2023-08-07T09:19:07.818Z,34.80
2023-08-07T09:21:35.396Z,34.90
2023-08-07T09:24:02.092Z,35.30
2023-08-07T09:26:29.112Z,36.00
2023-08-07T09:28:55.791Z,35.10
2023-08-07T09:31:27.336Z,34.30
2023-08-07T09:33:54.282Z,32.70
2023-08-07T09:36:20.995Z,30.50
2023-08-07T09:38:51.704Z,28.30
2023-08-07T09:41:22.406Z,26.10
2023-08-07T09:43:49.075Z,24.30
2023-08-07T09:46:15.780Z,23.00
2023-08-07T09:48:44.167Z,22.20
2023-08-07T09:51:11.345Z,22.30
2023-08-07T09:53:38.370Z,23.60
2023-08-07T09:56:05.373Z,25.80
2023-08-07T09:58:32.049Z,28.70
2023-08-07T10:01:05.719Z,31.60
2023-08-07T10:03:33.261Z,32.60
2023-08-07T10:06:00.410Z,32.00
2023-08-07T10:08:27.480Z,30.30
2023-08-07T10:10:54.256Z,28.10
2023-08-07T10:13:28.083Z,25.50
2023-08-07T10:16:05.093Z,23.20
2023-08-07T10:18:31.757Z,21.70
2023-08-07T10:20:59.754Z,20.90
2023-08-07T10:23:26.370Z,20.60
2023-08-07T10:25:54.396Z,20.20
2023-08-07T10:28:24.059Z,20.10
2023-08-07T10:30:51.357Z,20.10
2023-08-07T10:33:21.162Z,20.20
2023-08-07T10:35:51.915Z,20.40
2023-08-07T10:38:23.226Z,21.30
2023-08-07T10:41:00.013Z,22.80
2023-08-07T10:43:28.711Z,24.00
2023-08-07T10:46:05.469Z,24.60
2023-08-07T10:48:40.029Z,25.00
2023-08-07T10:51:07.138Z,25.70
2023-08-07T10:53:39.621Z,26.40
2023-08-07T10:56:09.489Z,26.30
2023-08-07T10:58:39.060Z,26.00
2023-08-07T11:01:36.559Z,25.30
2023-08-07T11:04:12.029Z,25.70
2023-08-07T11:06:40.111Z,24.90
2023-08-07T11:09:09.686Z,23.90
2023-08-07T11:11:40.911Z,23.00
2023-08-07T11:14:15.413Z,23.00
2023-08-07T11:16:42.666Z,23.30
2023-08-07T11:19:10.263Z,23.60
2023-08-07T11:21:38.044Z,23.70
2023-08-07T11:24:05.014Z,24.10
2023-08-07T11:26:32.167Z,24.10
2023-08-07T11:28:59.401Z,23.90
2023-08-07T11:31:26.663Z,23.60
2023-08-07T11:33:58.850Z,23.20
2023-08-07T11:36:26.135Z,22.70
2023-08-07T11:38:53.030Z,22.30
2023-08-07T11:41:20.581Z,22.50
2023-08-07T11:43:47.442Z,23.30
2023-08-07T11:46:15.636Z,24.10
2023-08-07T11:48:43.825Z,24.50
2023-08-07T11:51:10.932Z,24.30
2023-08-07T11:53:40.267Z,23.70
2023-08-07T11:56:17.547Z,22.90
2023-08-07T11:58:49.855Z,22.10
2023-08-07T12:01:22.345Z,21.80
2023-08-07T12:04:14.322Z,21.70
2023-08-07T12:06:57.298Z,21.70
2023-08-07T12:09:26.034Z,21.50
2023-08-07T12:11:58.300Z,21.10
2023-08-07T12:14:32.275Z,20.80
2023-08-07T12:16:59.095Z,20.70
2023-08-07T12:19:35.991Z,20.70
2023-08-07T12:22:05.083Z,20.60
2023-08-07T12:24:31.779Z,20.40
2023-08-07T12:26:58.714Z,19.80
2023-08-07T12:29:29.794Z,19.40
2023-08-07T12:31:56.842Z,19.20
2023-08-07T12:36:53.047Z,19.60
2023-08-07T12:39:20.625Z,20.20
2023-08-07T12:42:24.755Z,20.50
2023-08-07T12:44:36.068Z,21.10
2023-08-07T12:47:02.874Z,21.90
2023-08-07T12:49:29.508Z,22.40
2023-08-07T12:51:57.719Z,23.00
2023-08-07T12:54:24.357Z,23.30
2023-08-07T12:56:51.781Z,23.50
2023-08-07T12:59:18.388Z,23.40
2023-08-07T13:01:44.985Z,23.40
2023-08-07T13:04:13.358Z,23.40
2023-08-07T13:06:40.171Z,23.50
2023-08-07T13:09:06.869Z,23.70
2023-08-07T13:11:33.591Z,23.40
2023-08-07T13:14:00.180Z,22.90
2023-08-07T13:16:26.840Z,22.20
2023-08-07T13:18:53.461Z,21.60
2023-08-07T13:21:20.052Z,21.20
2023-08-07T13:23:46.684Z,20.60
2023-08-07T13:26:13.335Z,20.10
2023-08-07T13:28:39.939Z,19.90
2023-08-07T13:31:06.810Z,19.90
2023-08-07T13:33:33.488Z,19.80
2023-08-07T13:36:00.243Z,20.00
2023-08-07T13:38:27.036Z,20.10
2023-08-07T13:40:53.673Z,20.30
2023-08-07T13:43:20.317Z,20.80
2023-08-07T13:45:47.070Z,21.00
2023-08-07T13:48:13.763Z,21.10
2023-08-07T13:50:41.064Z,20.90
2023-08-07T13:53:14.354Z,20.50
2023-08-07T13:55:42.953Z,20.10
2023-08-07T13:58:10.567Z,20.00
2023-08-07T14:00:37.616Z,20.10
2023-08-07T14:03:04.657Z,20.10
2023-08-07T14:05:31.324Z,19.90
2023-08-07T14:07:58.770Z,19.60
2023-08-07T14:10:25.560Z,19.20
2023-08-07T14:12:52.192Z,18.90
2023-08-07T14:15:19.622Z,18.90
2023-08-07T14:17:46.252Z,18.90
2023-08-07T14:20:13.099Z,19.00
2023-08-07T14:22:40.866Z,19.10
2023-08-07T14:25:07.763Z,19.40
2023-08-07T14:27:34.857Z,19.70
2023-08-07T14:30:01.659Z,20.00
2023-08-07T14:32:28.403Z,20.00
2023-08-07T14:34:55.053Z,20.00
2023-08-07T14:37:21.901Z,20.00
2023-08-07T14:39:48.516Z,20.20
2023-08-07T14:42:15.325Z,20.30
2023-08-07T14:44:42.005Z,20.20
2023-08-07T14:47:08.680Z,20.30
2023-08-07T14:49:38.730Z,20.30
2023-08-07T14:52:07.002Z,20.40
2023-08-07T14:54:34.256Z,20.30
2023-08-07T14:57:00.961Z,20.40
2023-08-07T14:59:27.679Z,20.40
2023-08-07T15:01:54.320Z,20.60
2023-08-07T15:04:20.991Z,20.60
2023-08-07T15:06:49.313Z,20.70
2023-08-07T15:09:16.093Z,20.80
2023-08-07T15:11:42.798Z,20.80
2023-08-07T15:14:09.428Z,20.40
2023-08-07T15:16:38.385Z,20.30
2023-08-07T15:19:05.541Z,20.10
2023-08-07T15:21:32.636Z,19.90
2023-08-07T15:23:59.279Z,19.70
2023-08-07T15:26:26.162Z,19.50
2023-08-07T15:28:52.856Z,19.30
2023-08-07T15:31:19.552Z,19.10
2023-08-07T15:33:50.080Z,18.70
2023-08-07T15:36:17.200Z,18.50
2023-08-07T15:38:44.099Z,18.20
2023-08-07T15:41:13.908Z,18.00
2023-08-07T15:43:40.588Z,17.80
2023-08-07T15:46:07.396Z,17.90
2023-08-07T15:48:34.078Z,17.80
2023-08-07T15:51:00.786Z,18.00
2023-08-07T15:53:27.497Z,17.90
2023-08-07T15:55:54.117Z,17.80
2023-08-07T15:58:22.894Z,17.80
2023-08-07T16:00:49.515Z,17.80
2023-08-07T16:03:16.226Z,17.80
2023-08-07T16:05:42.940Z,18.00
2023-08-07T16:08:09.806Z,18.10
2023-08-07T16:10:38.657Z,18.20
2023-08-07T16:13:05.357Z,18.30
2023-08-07T16:15:31.962Z,18.30
2023-08-07T16:18:01.008Z,18.20
2023-08-07T16:20:27.721Z,18.10
2023-08-07T16:22:54.386Z,18.00
2023-08-07T16:25:21.110Z,17.90
2023-08-07T16:27:50.221Z,17.80
2023-08-07T16:30:17.233Z,17.80
2023-08-07T16:32:44.159Z,17.70
2023-08-07T16:35:10.827Z,17.60
2023-08-07T16:37:37.542Z,17.50
2023-08-07T16:40:05.156Z,17.40
2023-08-07T16:42:32.062Z,17.30
2023-08-07T16:44:59.063Z,17.30
2023-08-07T16:47:25.743Z,17.20
2023-08-07T16:49:52.374Z,17.20
2023-08-07T16:52:19.299Z,17.10
2023-08-07T16:54:49.497Z,17.10
2023-08-07T16:57:16.749Z,17.10
2023-08-07T16:59:43.577Z,17.00
2023-08-07T17:02:10.337Z,17.00
2023-08-07T17:04:38.714Z,16.90
2023-08-07T17:07:06.908Z,17.00
2023-08-07T17:09:33.972Z,17.00
2023-08-07T17:12:00.762Z,17.10
2023-08-07T17:14:27.484Z,17.20
2023-08-07T17:16:54.457Z,17.20
2023-08-07T17:19:22.434Z,17.10
2023-08-07T17:21:49.752Z,17.00
2023-08-07T17:24:16.373Z,16.80
2023-08-07T17:26:43.075Z,16.70
2023-08-07T17:29:09.792Z,16.60
2023-08-07T17:31:36.552Z,16.50
2023-08-07T17:34:03.939Z,16.50
2023-08-07T17:36:30.697Z,16.50
2023-08-07T17:38:58.060Z,16.40
2023-08-07T17:41:25.872Z,16.40
2023-08-07T17:43:52.543Z,16.40
2023-08-07T17:46:19.278Z,16.30
2023-08-07T17:48:45.932Z,16.30
2023-08-07T17:51:13.676Z,16.20
2023-08-07T17:53:41.257Z,16.20
2023-08-07T17:56:07.993Z,16.10
2023-08-07T17:58:34.641Z,16.10
2023-08-07T18:01:01.554Z,16.10
2023-08-07T18:03:28.194Z,16.00
2023-08-07T18:05:54.907Z,16.00
2023-08-07T18:08:22.222Z,16.00
2023-08-07T18:10:48.965Z,15.90
2023-08-07T18:13:16.208Z,15.90
2023-08-07T18:15:42.871Z,15.80
2023-08-07T18:18:09.725Z,15.60
2023-08-07T18:20:37.158Z,15.50
2023-08-07T18:23:04.101Z,15.30
2023-08-07T18:25:30.790Z,15.10
2023-08-07T18:27:57.442Z,15.00
2023-08-07T18:30:24.157Z,15.00
2023-08-07T18:32:52.501Z,14.90
2023-08-07T18:35:19.356Z,14.90
2023-08-07T18:37:46.597Z,14.90
2023-08-07T18:40:13.635Z,15.00
2023-08-07T18:42:40.449Z,14.90
2023-08-07T18:45:07.643Z,14.80
2023-08-07T18:47:34.302Z,14.80
2023-08-07T18:50:01.025Z,14.70
2023-08-07T18:52:27.669Z,14.60
2023-08-07T18:54:56.166Z,14.50
2023-08-07T18:57:23.014Z,14.40
2023-08-07T18:59:49.667Z,14.40
2023-08-07T19:02:16.454Z,14.30
2023-08-07T19:04:43.154Z,14.30
2023-08-07T19:07:10.715Z,14.30
2023-08-07T19:09:37.407Z,14.30
2023-08-07T19:12:04.678Z,14.30
2023-08-07T19:14:31.440Z,14.30
2023-08-07T19:16:58.314Z,14.30
2023-08-07T19:19:25.266Z,14.20
2023-08-07T19:21:51.887Z,14.20
2023-08-07T19:24:18.517Z,14.10
2023-08-07T19:26:45.185Z,14.00
2023-08-07T19:29:13.432Z,14.00
2023-08-07T19:31:40.091Z,13.90
2023-08-07T19:34:09.730Z,13.80
2023-08-07T19:36:39.778Z,13.70
2023-08-07T19:39:08.618Z,13.70
2023-08-07T19:41:36.808Z,13.60
2023-08-07T19:44:04.098Z,13.60
2023-08-07T19:46:30.830Z,13.50
2023-08-07T19:48:57.862Z,13.50
2023-08-07T19:51:24.640Z,13.40
2023-08-07T19:54:01.481Z,13.30
2023-08-07T19:56:30.835Z,13.30
2023-08-07T19:59:00.125Z,13.20
2023-08-07T20:01:27.453Z,13.20
2023-08-07T20:03:54.123Z,13.10
2023-08-07T20:06:20.805Z,13.10
2023-08-07T20:08:47.970Z,13.10
2023-08-07T20:11:14.584Z,13.10
2023-08-07T20:13:41.271Z,13.10
2023-08-07T20:16:07.960Z,13.00
2023-08-07T20:18:34.714Z,13.00
2023-08-07T20:21:01.409Z,12.90
2023-08-07T20:23:28.135Z,12.90
2023-08-07T20:25:55.791Z,12.90
2023-08-07T20:28:22.461Z,12.90
2023-08-07T20:30:49.347Z,12.80
2023-08-07T20:33:16.005Z,12.80
2023-08-07T20:35:42.797Z,12.80
2023-08-07T20:38:09.467Z,12.70
2023-08-07T20:40:36.131Z,12.70
2023-08-07T20:43:03.526Z,12.70
2023-08-07T20:45:30.206Z,12.70
2023-08-07T20:47:56.872Z,12.70
2023-08-07T20:50:23.738Z,12.60
2023-08-07T20:52:50.365Z,12.70
2023-08-07T20:55:17.141Z,12.60
2023-08-07T20:57:43.942Z,12.50
2023-08-07T21:00:11.249Z,12.50
2023-08-07T21:02:37.938Z,12.50
2023-08-07T21:05:05.038Z,12.50
2023-08-07T21:07:31.706Z,12.40
2023-08-07T21:10:01.087Z,12.40
2023-08-07T21:12:28.249Z,12.40
2023-08-07T21:14:54.936Z,12.30
2023-08-07T21:17:21.568Z,12.30
2023-08-07T21:19:49.125Z,12.20
2023-08-07T21:22:15.938Z,12.20
2023-08-07T21:24:42.554Z,12.20
2023-08-07T21:27:09.220Z,12.10
2023-08-07T21:29:36.077Z,12.20
2023-08-07T21:32:03.037Z,12.10
2023-08-07T21:34:29.648Z,12.20
2023-08-07T21:36:56.350Z,12.20
2023-08-07T21:39:23.092Z,12.10
2023-08-07T21:41:49.685Z,12.10
2023-08-07T21:44:16.843Z,12.10
2023-08-07T21:46:46.395Z,12.20
2023-08-07T21:49:13.074Z,12.20
2023-08-07T21:51:39.725Z,12.10
2023-08-07T21:54:06.321Z,12.10
2023-08-07T21:56:32.943Z,12.10
2023-08-07T21:58:59.690Z,12.10
2023-08-07T22:01:26.811Z,12.00
2023-08-07T22:03:54.000Z,12.10
2023-08-07T22:06:20.759Z,12.10
2023-08-07T22:08:47.379Z,12.10
2023-08-07T22:11:15.316Z,12.20
2023-08-07T22:13:41.931Z,12.20
2023-08-07T22:16:08.548Z,12.10
2023-08-07T22:18:35.476Z,12.00
2023-08-07T22:21:02.131Z,12.00
2023-08-07T22:23:28.821Z,12.00
2023-08-07T22:25:56.309Z,12.00
2023-08-07T22:28:23.297Z,11.90
2023-08-07T22:30:51.227Z,11.90
2023-08-07T22:33:18.391Z,11.90
2023-08-07T22:35:45.069Z,11.90
2023-08-07T22:38:11.648Z,11.90
2023-08-07T22:40:38.657Z,12.00
2023-08-07T22:43:05.522Z,12.10
2023-08-07T22:45:32.176Z,12.20
2023-08-07T22:47:58.991Z,12.20
2023-08-07T22:50:25.658Z,12.30
2023-08-07T22:52:52.283Z,12.40
2023-08-07T22:55:18.938Z,12.40
2023-08-07T22:57:45.541Z,12.40
2023-08-07T23:00:12.973Z,12.40
2023-08-07T23:02:40.335Z,12.50
2023-08-07T23:05:07.582Z,12.50
2023-08-07T23:07:34.349Z,12.50
2023-08-07T23:10:01.279Z,12.50
2023-08-07T23:12:28.172Z,12.50
2023-08-07T23:14:54.789Z,12.50
2023-08-07T23:17:21.373Z,12.40
2023-08-07T23:19:48.015Z,12.30
2023-08-07T23:22:14.689Z,12.20
2023-08-07T23:24:41.284Z,12.20
2023-08-07T23:27:08.399Z,12.20
2023-08-07T23:29:35.767Z,12.10
2023-08-07T23:32:02.472Z,12.10
2023-08-07T23:34:29.149Z,12.10
2023-08-07T23:36:55.790Z,12.10
2023-08-07T23:39:22.608Z,12.10
2023-08-07T23:41:49.240Z,12.00
2023-08-07T23:44:15.859Z,12.00
2023-08-07T23:46:42.507Z,12.10
2023-08-07T23:49:09.164Z,12.10
2023-08-07T23:51:35.763Z,12.10
2023-08-07T23:54:02.339Z,12.10
2023-08-07T23:56:28.927Z,12.10
2023-08-07T23:58:55.520Z,12.10
